createdAt,value
2019-02-25T00:00:37.441Z,102632.12
2019-02-25T00:03:06.017Z,102637.95
2019-02-25T00:05:34.408Z,102636.69
2019-02-25T00:08:02.812Z,102634.84
2019-02-25T00:10:31.242Z,102637.06
2019-02-25T00:12:59.634Z,102630.75
2019-02-25T00:15:28.145Z,102636.20
2019-02-25T00:17:56.585Z,102632.12
2019-02-25T00:20:24.981Z,102636.10
2019-02-25T00:22:53.385Z,102626.14
2019-02-25T00:25:21.815Z,102629.28
2019-02-25T00:27:50.254Z,102622.94
2019-02-25T00:30:18.894Z,102616.59
2019-02-25T00:32:47.364Z,102614.75
2019-02-25T00:35:15.764Z,102617.48
2019-02-25T00:37:44.169Z,102608.81
2019-02-25T00:40:14.240Z,102611.03
2019-02-25T00:42:42.676Z,102618.25
2019-02-25T00:45:16.154Z,102614.27
2019-02-25T00:47:44.568Z,102605.69
2019-02-25T00:50:17.690Z,102602.84
2019-02-25T00:52:46.123Z,102603.73
2019-02-25T00:55:14.775Z,102606.94
2019-02-25T00:57:43.270Z,102602.84
2019-02-25T01:00:17.511Z,102606.94
2019-02-25T01:02:46.016Z,102607.82
2019-02-25T01:05:15.760Z,102600.63
2019-02-25T01:07:44.354Z,102607.82
2019-02-25T01:10:14.057Z,102604.20
2019-02-25T01:12:45.287Z,102604.72
2019-02-25T01:15:14.717Z,102603.73
2019-02-25T01:17:43.182Z,102615.53
2019-02-25T01:20:14.116Z,102619.22
2019-02-25T01:22:42.751Z,102610.07
2019-02-25T01:25:12.714Z,102613.65
2019-02-25T01:27:41.102Z,102608.30
2019-02-25T01:30:14.560Z,102606.83
2019-02-25T01:32:42.948Z,102605.09
2019-02-25T01:35:12.861Z,102600.12
2019-02-25T01:37:41.241Z,102604.61
2019-02-25T01:40:11.679Z,102599.16
2019-02-25T01:42:40.116Z,102598.75
2019-02-25T01:45:13.315Z,102596.42
2019-02-25T01:47:41.756Z,102591.93
2019-02-25T01:50:11.343Z,102588.35
2019-02-25T01:52:39.810Z,102582.78
2019-02-25T01:55:10.683Z,102580.53
2019-02-25T01:57:39.238Z,102588.64
2019-02-25T02:00:10.957Z,102585.52
2019-02-25T02:02:39.351Z,102584.15
2019-02-25T02:05:07.949Z,102588.64
2019-02-25T02:07:36.341Z,102592.73
2019-02-25T02:10:07.192Z,102589.02
2019-02-25T02:12:35.595Z,102585.44
2019-02-25T02:15:06.463Z,102588.16
2019-02-25T02:17:34.867Z,102585.92
2019-02-25T02:20:03.657Z,102583.63
2019-02-25T02:22:32.072Z,102585.92
2019-02-25T02:25:00.503Z,102588.64
2019-02-25T02:27:28.919Z,102587.28
2019-02-25T02:29:57.359Z,102588.16
2019-02-25T02:32:25.768Z,102589.53
2019-02-25T02:34:54.201Z,102585.92
2019-02-25T02:37:22.607Z,102581.34
2019-02-25T02:39:51.052Z,102584.55
2019-02-25T02:42:20.907Z,102593.63
2019-02-25T02:44:52.047Z,102589.53
2019-02-25T02:47:41.945Z,102593.11
2019-02-25T02:50:13.517Z,102587.17
2019-02-25T02:52:41.924Z,102585.44
2019-02-25T02:55:10.328Z,102581.34
2019-02-25T02:57:38.753Z,102586.80
2019-02-25T03:00:13.371Z,102586.28
2019-02-25T03:02:41.780Z,102584.92
2019-02-25T03:05:12.450Z,102583.08
2019-02-25T03:07:40.911Z,102589.02
2019-02-25T03:10:12.035Z,102598.09
2019-02-25T03:12:40.467Z,102594.98
2019-02-25T03:15:14.010Z,102601.81
2019-02-25T03:17:42.442Z,102606.27
2019-02-25T03:20:12.373Z,102601.70
2019-02-25T03:22:40.799Z,102602.29
2019-02-25T03:25:11.875Z,102602.66
2019-02-25T03:27:40.391Z,102600.44
2019-02-25T03:30:11.842Z,102600.92
2019-02-25T03:32:40.230Z,102607.27
2019-02-25T03:35:08.811Z,102614.56
2019-02-25T03:37:37.209Z,102616.30
2019-02-25T03:40:09.102Z,102615.93
2019-02-25T03:42:38.165Z,102615.45
2019-02-25T03:45:09.619Z,102611.84
2019-02-25T03:47:38.147Z,102613.58
2019-02-25T03:50:07.391Z,102610.47
2019-02-25T03:52:35.823Z,102607.74
2019-02-25T03:55:06.903Z,102618.55
2019-02-25T03:57:36.164Z,102608.11
2019-02-25T04:00:08.029Z,102602.66
2019-02-25T04:02:36.541Z,102603.55
2019-02-25T04:05:06.573Z,102605.39
2019-02-25T04:07:34.985Z,102612.20
2019-02-25T04:10:04.801Z,102628.98
2019-02-25T04:12:33.229Z,102625.73
2019-02-25T04:15:01.635Z,102620.80
2019-02-25T04:17:30.133Z,102611.73
2019-02-25T04:19:58.551Z,102604.42
2019-02-25T04:22:26.991Z,102603.06
2019-02-25T04:24:55.445Z,102596.61
2019-02-25T04:27:23.846Z,102602.55
2019-02-25T04:29:52.276Z,102598.56
2019-02-25T04:32:21.778Z,102598.09
2019-02-25T04:34:50.321Z,102601.59
2019-02-25T04:37:18.759Z,102596.13
2019-02-25T04:39:47.156Z,102600.59
2019-02-25T04:42:15.546Z,102601.07
2019-02-25T04:44:43.971Z,102595.25
2019-02-25T04:47:12.396Z,102607.05
2019-02-25T04:49:40.806Z,102603.80
2019-02-25T04:52:09.232Z,102606.53
2019-02-25T04:54:37.681Z,102615.12
2019-02-25T04:57:06.084Z,102609.66
2019-02-25T04:59:34.499Z,102610.03
2019-02-25T05:02:03.004Z,102615.12
2019-02-25T05:04:31.407Z,102613.35
2019-02-25T05:06:59.905Z,102621.42
2019-02-25T05:09:28.326Z,102629.24
2019-02-25T05:11:56.754Z,102624.67
2019-02-25T05:14:25.341Z,102619.69
2019-02-25T05:16:53.739Z,102627.77
2019-02-25T05:19:22.244Z,102624.67
2019-02-25T05:21:50.650Z,102619.58
2019-02-25T05:24:19.063Z,102616.86
2019-02-25T05:26:47.492Z,102619.95
2019-02-25T05:29:15.888Z,102607.67
2019-02-25T05:31:44.320Z,102608.19
2019-02-25T05:34:12.743Z,102599.12
2019-02-25T05:36:41.172Z,102600.48
2019-02-25T05:39:09.576Z,102603.58
2019-02-25T05:41:38.018Z,102601.73
2019-02-25T05:44:08.457Z,102601.73
2019-02-25T05:46:36.551Z,102604.95
2019-02-25T05:49:04.987Z,102609.04
2019-02-25T05:51:33.405Z,102612.17
2019-02-25T05:54:01.847Z,102614.02
2019-02-25T05:56:30.232Z,102615.86
2019-02-25T05:58:58.660Z,102626.77
2019-02-25T06:01:27.047Z,102627.66
2019-02-25T06:03:55.460Z,102633.12
2019-02-25T06:06:23.877Z,102622.20
2019-02-25T06:08:52.289Z,102629.91
2019-02-25T06:11:20.708Z,102635.73
2019-02-25T06:13:49.110Z,102628.14
2019-02-25T06:16:17.547Z,102624.45
2019-02-25T06:18:45.933Z,102627.55
2019-02-25T06:21:14.379Z,102623.09
2019-02-25T06:23:42.779Z,102622.57
2019-02-25T06:26:11.222Z,102626.67
2019-02-25T06:28:39.614Z,102625.81
2019-02-25T06:31:08.041Z,102623.94
2019-02-25T06:33:36.464Z,102626.30
2019-02-25T06:36:04.904Z,102630.28
2019-02-25T06:38:33.345Z,102635.73
2019-02-25T06:41:01.754Z,102636.73
2019-02-25T06:43:30.183Z,102634.00
2019-02-25T06:45:58.602Z,102635.73
2019-02-25T06:48:27.009Z,102640.72
2019-02-25T06:50:55.402Z,102641.67
2019-02-25T06:53:23.828Z,102643.92
2019-02-25T06:55:52.224Z,102638.47
2019-02-25T06:58:22.923Z,102640.20
2019-02-25T07:00:50.820Z,102640.20
2019-02-25T07:03:19.235Z,102641.20
2019-02-25T07:05:49.306Z,102640.31
2019-02-25T07:08:28.113Z,102645.66
2019-02-25T07:11:04.173Z,102644.70
2019-02-25T07:13:36.654Z,102644.19
2019-02-25T07:16:06.716Z,102647.80
2019-02-25T07:18:53.103Z,102651.01
2019-02-25T07:21:25.827Z,102638.25
2019-02-25T07:24:10.860Z,102641.86
2019-02-25T07:26:46.824Z,102639.61
2019-02-25T07:29:33.276Z,102641.34
2019-02-25T07:32:12.236Z,102647.20
2019-02-25T07:34:48.448Z,102650.30
2019-02-25T07:37:24.620Z,102646.62
2019-02-25T07:39:54.656Z,102651.19
2019-02-25T07:42:30.684Z,102652.44
2019-02-25T07:45:00.734Z,102653.81
2019-02-25T07:47:42.884Z,102655.55
2019-02-25T07:50:21.954Z,102655.95
2019-02-25T07:52:57.437Z,102645.98
2019-02-25T07:55:33.493Z,102647.76
2019-02-25T07:58:09.582Z,102643.16
2019-02-25T08:00:57.540Z,102648.13
2019-02-25T08:03:39.449Z,102649.02
2019-02-25T08:06:15.521Z,102644.41
2019-02-25T08:08:57.564Z,102650.75
2019-02-25T08:11:39.690Z,102650.27
2019-02-25T08:14:18.298Z,102657.09
2019-02-25T08:16:51.056Z,102653.73
2019-02-25T08:19:24.060Z,102651.01
2019-02-25T08:21:59.868Z,102652.78
2019-02-25T08:24:35.895Z,102655.51
2019-02-25T08:27:15.483Z,102662.33
2019-02-25T08:29:45.518Z,102661.81
2019-02-25T08:32:15.598Z,102654.03
2019-02-25T08:34:45.644Z,102659.38
2019-02-25T08:37:21.825Z,102652.55
2019-02-25T08:39:54.918Z,102653.81
2019-02-25T08:42:26.842Z,102654.29
2019-02-25T08:45:08.862Z,102653.41
2019-02-25T08:47:38.931Z,102659.27
2019-02-25T08:50:10.304Z,102656.80
2019-02-25T08:52:38.808Z,102657.28
2019-02-25T08:55:08.830Z,102668.60
2019-02-25T08:57:37.297Z,102668.97
2019-02-25T09:00:08.762Z,102675.31
2019-02-25T09:02:37.190Z,102665.76
2019-02-25T09:05:09.042Z,102673.84
2019-02-25T09:07:37.445Z,102681.55
2019-02-25T09:10:08.916Z,102681.92
2019-02-25T09:12:37.318Z,102685.02
2019-02-25T09:15:09.122Z,102681.44
2019-02-25T09:17:46.040Z,102677.23
2019-02-25T09:20:15.812Z,102677.60
2019-02-25T09:22:44.225Z,102677.12
2019-02-25T09:25:15.006Z,102682.95
2019-02-25T09:27:43.476Z,102671.03
2019-02-25T09:30:16.989Z,102671.92
2019-02-25T09:32:45.858Z,102681.47
2019-02-25T09:35:14.486Z,102673.66
2019-02-25T09:37:42.894Z,102675.42
2019-02-25T09:40:14.134Z,102678.04
2019-02-25T09:42:42.634Z,102682.14
2019-02-25T09:45:17.863Z,102677.93
2019-02-25T09:47:46.272Z,102680.14
2019-02-25T09:50:19.352Z,102677.41
2019-02-25T09:52:47.789Z,102669.22
2019-02-25T09:55:16.380Z,102673.20
2019-02-25T09:57:44.798Z,102677.30
2019-02-25T10:00:21.493Z,102679.55
2019-02-25T10:02:49.893Z,102677.22
2019-02-25T10:05:18.360Z,102669.88
2019-02-25T10:07:46.794Z,102665.30
2019-02-25T10:10:18.961Z,102656.12
2019-02-25T10:12:47.381Z,102658.73
2019-02-25T10:15:21.217Z,102659.14
2019-02-25T10:17:49.655Z,102653.67
2019-02-25T10:20:18.110Z,102656.41
2019-02-25T10:22:46.552Z,102662.23
2019-02-25T10:25:14.964Z,102662.12
2019-02-25T10:27:43.431Z,102661.64
2019-02-25T10:30:13.793Z,102662.01
2019-02-25T10:32:42.246Z,102656.55
2019-02-25T10:35:19.047Z,102653.81
2019-02-25T10:37:47.508Z,102649.72
2019-02-25T10:40:19.047Z,102649.12
2019-02-25T10:42:46.127Z,102647.24
2019-02-25T10:45:16.912Z,102647.76
2019-02-25T10:47:46.752Z,102645.39
2019-02-25T10:50:15.722Z,102647.64
2019-02-25T10:52:44.903Z,102651.11
2019-02-25T10:55:26.860Z,102651.62
2019-02-25T10:57:57.185Z,102646.17
2019-02-25T11:00:25.659Z,102646.53
2019-02-25T11:02:56.443Z,102644.69
2019-02-25T11:05:27.280Z,102636.49
2019-02-25T11:07:54.587Z,102627.05
2019-02-25T11:10:33.717Z,102630.52
2019-02-25T11:13:04.212Z,102620.10
2019-02-25T11:15:33.764Z,102616.86
2019-02-25T11:18:02.164Z,102611.39
2019-02-25T11:20:31.833Z,102614.52
2019-02-25T11:23:00.900Z,102605.81
2019-02-25T11:25:30.220Z,102613.92
2019-02-25T11:27:58.776Z,102611.68
2019-02-25T11:30:27.153Z,102610.56
2019-02-25T11:32:57.436Z,102614.44
2019-02-25T11:35:28.055Z,102615.20
2019-02-25T11:37:58.542Z,102614.13
2019-02-25T11:40:29.013Z,102612.27
2019-02-25T11:42:56.771Z,102608.43
2019-02-25T11:45:25.360Z,102607.95
2019-02-25T11:47:53.764Z,102611.45
2019-02-25T11:50:22.192Z,102617.51
2019-02-25T11:52:50.673Z,102620.72
2019-02-25T11:55:19.220Z,102619.47
2019-02-25T11:57:47.646Z,102615.01
2019-02-25T12:00:24.500Z,102609.55
2019-02-25T12:02:52.907Z,102613.64
2019-02-25T12:05:21.377Z,102616.00
2019-02-25T12:07:49.798Z,102607.81
2019-02-25T12:10:18.840Z,102602.34
2019-02-25T12:12:47.618Z,102595.00
2019-02-25T12:15:20.283Z,102590.42
2019-02-25T12:17:48.722Z,102591.42
2019-02-25T12:20:17.147Z,102586.80
2019-02-25T12:22:45.662Z,102586.97
2019-02-25T12:25:19.408Z,102588.45
2019-02-25T12:27:47.905Z,102583.95
2019-02-25T12:30:21.760Z,102579.86
2019-02-25T12:32:50.186Z,102573.02
2019-02-25T12:35:18.760Z,102572.66
2019-02-25T12:37:47.487Z,102565.34
2019-02-25T12:40:17.238Z,102561.73
2019-02-25T12:42:45.696Z,102558.00
2019-02-25T12:45:15.259Z,102555.27
2019-02-25T12:47:44.048Z,102552.53
2019-02-25T12:50:19.643Z,102552.53
2019-02-25T12:52:48.317Z,102549.80
2019-02-25T12:55:17.884Z,102540.24
2019-02-25T12:57:46.313Z,102541.13
2019-02-25T13:00:22.281Z,102531.56
2019-02-25T13:02:50.757Z,102530.20
2019-02-25T13:05:20.723Z,102524.02
2019-02-25T13:07:49.150Z,102521.16
2019-02-25T13:10:18.596Z,102514.21
2019-02-25T13:12:47.203Z,102515.95
2019-02-25T13:15:20.461Z,102515.70
2019-02-25T13:17:48.896Z,102510.12
2019-02-25T13:20:17.542Z,102506.91
2019-02-25T13:22:46.107Z,102510.01
2019-02-25T13:25:19.477Z,102503.17
2019-02-25T13:27:47.902Z,102502.09
2019-02-25T13:30:17.276Z,102497.98
2019-02-25T13:32:45.711Z,102486.94
2019-02-25T13:35:14.882Z,102483.20
2019-02-25T13:37:43.581Z,102476.73
2019-02-25T13:40:13.725Z,102482.97
2019-02-25T13:42:42.194Z,102481.96
2019-02-25T13:45:15.680Z,102477.02
2019-02-25T13:47:44.108Z,102478.27
2019-02-25T13:50:14.203Z,102474.16
2019-02-25T13:52:48.065Z,102468.70
2019-02-25T13:55:18.992Z,102469.45
2019-02-25T13:57:47.507Z,102467.09
2019-02-25T14:00:24.887Z,102459.25
2019-02-25T14:02:53.489Z,102453.78
2019-02-25T14:05:22.857Z,102446.95
2019-02-25T14:07:51.278Z,102437.78
2019-02-25T14:10:20.551Z,102445.09
2019-02-25T14:12:49.120Z,102445.09
2019-02-25T14:15:25.344Z,102440.00
2019-02-25T14:17:53.880Z,102438.27
2019-02-25T14:20:24.261Z,102428.46
2019-02-25T14:22:52.680Z,102429.06
2019-02-25T14:25:28.630Z,102415.88
2019-02-25T14:27:57.413Z,102417.73
2019-02-25T14:30:32.946Z,102410.06
2019-02-25T14:32:59.638Z,102403.70
2019-02-25T14:35:29.512Z,102403.70
2019-02-25T14:38:04.269Z,102398.61
2019-02-25T14:40:32.293Z,102394.62
2019-02-25T14:43:02.326Z,102385.58
2019-02-25T14:45:33.498Z,102385.58
2019-02-25T14:48:04.285Z,102378.75
2019-02-25T14:50:31.047Z,102378.23
2019-02-25T14:53:00.601Z,102377.87
2019-02-25T14:55:29.892Z,102376.98
2019-02-25T14:58:02.114Z,102376.38
2019-02-25T15:00:31.381Z,102371.04
2019-02-25T15:02:59.146Z,102372.05
2019-02-25T15:05:27.676Z,102372.89
2019-02-25T15:07:56.279Z,102367.06
2019-02-25T15:10:29.059Z,102368.42
2019-02-25T15:12:58.666Z,102372.05
2019-02-25T15:15:25.249Z,102371.16
2019-02-25T15:17:53.798Z,102371.16
2019-02-25T15:20:24.100Z,102366.30
2019-02-25T15:22:53.060Z,102364.45
2019-02-25T15:25:21.780Z,102364.09
2019-02-25T15:27:50.471Z,102360.47
2019-02-25T15:30:28.320Z,102357.25
2019-02-25T15:32:58.893Z,102359.11
2019-02-25T15:35:31.404Z,102355.89
2019-02-25T15:37:57.917Z,102356.38
2019-02-25T15:40:27.440Z,102354.12
2019-02-25T15:43:10.365Z,102357.25
2019-02-25T15:45:40.697Z,102353.64
2019-02-25T15:48:15.029Z,102361.48
2019-02-25T15:50:46.114Z,102363.69
2019-02-25T15:53:15.939Z,102356.02
2019-02-25T15:55:44.571Z,102348.78
2019-02-25T15:58:12.985Z,102353.77
2019-02-25T16:00:41.735Z,102354.25
2019-02-25T16:03:11.237Z,102355.25
2019-02-25T16:05:40.289Z,102360.23
2019-02-25T16:08:10.755Z,102361.08
2019-02-25T16:10:39.409Z,102356.62
2019-02-25T16:13:10.081Z,102356.98
2019-02-25T16:15:38.204Z,102355.25
2019-02-25T16:18:06.780Z,102362.45
2019-02-25T16:20:35.282Z,102356.62
2019-02-25T16:23:05.925Z,102356.62
2019-02-25T16:25:35.122Z,102349.79
2019-02-25T16:28:03.621Z,102352.03
2019-02-25T16:30:32.115Z,102351.64
2019-02-25T16:33:02.925Z,102348.06
2019-02-25T16:35:30.650Z,102350.80
2019-02-25T16:38:00.288Z,102342.20
2019-02-25T16:40:31.461Z,102346.30
2019-02-25T16:43:00.312Z,102347.54
2019-02-25T16:45:34.828Z,102342.59
2019-02-25T16:47:59.982Z,102344.93
2019-02-25T16:50:28.939Z,102351.77
2019-02-25T16:52:57.534Z,102352.64
2019-02-25T16:55:27.773Z,102343.56
2019-02-25T16:57:56.503Z,102352.16
2019-02-25T17:00:30.188Z,102351.64
2019-02-25T17:03:01.528Z,102350.80
2019-02-25T17:05:29.360Z,102350.27
2019-02-25T17:07:57.867Z,102355.86
2019-02-25T17:10:29.167Z,102360.84
2019-02-25T17:12:56.976Z,102364.45
2019-02-25T17:15:26.987Z,102359.47
2019-02-25T17:17:58.382Z,102350.39
2019-02-25T17:20:27.808Z,102349.03
2019-02-25T17:22:55.909Z,102351.77
2019-02-25T17:25:26.927Z,102354.49
2019-02-25T17:27:55.057Z,102358.59
2019-02-25T17:30:24.685Z,102357.23
2019-02-25T17:32:53.188Z,102357.23
2019-02-25T17:35:24.174Z,102359.11
2019-02-25T17:37:53.366Z,102360.97
2019-02-25T17:40:22.801Z,102362.33
2019-02-25T17:42:52.178Z,102368.55
2019-02-25T17:45:29.362Z,102361.33
2019-02-25T17:47:58.485Z,102364.45
2019-02-25T17:50:27.312Z,102372.25
2019-02-25T17:52:55.799Z,102373.13
2019-02-25T17:55:29.375Z,102375.38
2019-02-25T17:58:00.846Z,102375.38
2019-02-25T18:00:36.659Z,102368.67
2019-02-25T18:03:05.897Z,102369.52
2019-02-25T18:05:35.947Z,102369.52
2019-02-25T18:08:05.697Z,102371.41
2019-02-25T18:10:35.144Z,102372.77
2019-02-25T18:13:06.737Z,102380.97
2019-02-25T18:15:34.280Z,102383.70
2019-02-25T18:18:02.870Z,102374.62
2019-02-25T18:20:31.414Z,102374.98
2019-02-25T18:23:00.190Z,102379.97
2019-02-25T18:25:28.662Z,102385.55
2019-02-25T18:27:57.157Z,102385.55
2019-02-25T18:30:32.462Z,102392.75
2019-02-25T18:33:04.636Z,102388.65
2019-02-25T18:35:33.939Z,102395.00
2019-02-25T18:38:03.014Z,102390.89
2019-02-25T18:40:33.482Z,102402.70
2019-02-25T18:43:03.042Z,102399.58
2019-02-25T18:45:33.375Z,102393.14
2019-02-25T18:48:03.080Z,102395.87
2019-02-25T18:50:31.968Z,102397.24
2019-02-25T18:53:01.369Z,102398.61
2019-02-25T18:55:33.549Z,102399.09
2019-02-25T18:58:00.502Z,102392.27
2019-02-25T19:00:35.392Z,102391.78
2019-02-25T19:03:04.944Z,102396.36
2019-02-25T19:05:33.700Z,102392.75
2019-02-25T19:08:04.386Z,102398.09
2019-02-25T19:10:33.359Z,102398.09
2019-02-25T19:13:01.977Z,102400.82
2019-02-25T19:15:30.653Z,102400.34
2019-02-25T19:17:59.242Z,102397.24
2019-02-25T19:20:27.819Z,102400.34
2019-02-25T19:23:00.503Z,102399.45
2019-02-25T19:25:26.698Z,102407.17
2019-02-25T19:27:56.580Z,102407.17
2019-02-25T19:30:27.859Z,102410.39
2019-02-25T19:32:55.877Z,102409.91
2019-02-25T19:35:26.338Z,102409.54
2019-02-25T19:37:54.637Z,102417.22
2019-02-25T19:40:24.631Z,102415.00
2019-02-25T19:42:54.283Z,102412.63
2019-02-25T19:45:23.491Z,102414.48
2019-02-25T19:47:52.162Z,102412.63
2019-02-25T19:50:25.966Z,102413.52
2019-02-25T19:52:53.995Z,102415.73
2019-02-25T19:55:23.430Z,102407.66
2019-02-25T19:57:52.107Z,102408.05
2019-02-25T20:00:30.420Z,102404.44
2019-02-25T20:03:05.706Z,102407.17
2019-02-25T20:05:33.097Z,102414.36
2019-02-25T20:08:00.875Z,102407.17
2019-02-25T20:10:30.654Z,102410.27
2019-02-25T20:12:59.375Z,102404.44
2019-02-25T20:15:27.845Z,102404.80
2019-02-25T20:17:56.265Z,102412.15
2019-02-25T20:20:26.354Z,102411.27
2019-02-25T20:22:54.762Z,102413.00
2019-02-25T20:25:24.464Z,102414.36
2019-02-25T20:27:55.105Z,102417.50
2019-02-25T20:30:25.739Z,102418.86
2019-02-25T20:32:53.823Z,102419.70
2019-02-25T20:35:24.413Z,102413.39
2019-02-25T20:37:53.740Z,102406.56
2019-02-25T20:40:24.130Z,102410.14
2019-02-25T20:42:53.576Z,102408.78
2019-02-25T20:45:26.176Z,102409.78
2019-02-25T20:47:57.262Z,102414.77
2019-02-25T20:50:25.962Z,102414.77
2019-02-25T20:52:56.028Z,102415.25
2019-02-25T20:55:25.326Z,102417.50
2019-02-25T20:57:54.599Z,102421.59
2019-02-25T21:00:24.443Z,102414.77
2019-02-25T21:02:52.961Z,102409.78
2019-02-25T21:05:22.786Z,102418.86
2019-02-25T21:07:53.370Z,102417.50
2019-02-25T21:10:22.768Z,102424.20
2019-02-25T21:12:53.033Z,102419.23
2019-02-25T21:15:22.252Z,102417.86
2019-02-25T21:17:52.064Z,102418.34
2019-02-25T21:20:21.415Z,102418.74
2019-02-25T21:22:52.822Z,102416.86
2019-02-25T21:25:24.497Z,102414.24
2019-02-25T21:27:55.149Z,102411.91
2019-02-25T21:30:22.109Z,102408.30
2019-02-25T21:32:51.950Z,102406.05
2019-02-25T21:35:23.437Z,102406.93
2019-02-25T21:37:52.856Z,102400.09
2019-02-25T21:40:27.109Z,102404.20
2019-02-25T21:42:56.626Z,102402.83
2019-02-25T21:45:27.490Z,102404.56
2019-02-25T21:47:56.513Z,102392.78
2019-02-25T21:50:28.426Z,102398.25
2019-02-25T21:52:55.797Z,102388.16
2019-02-25T21:55:26.209Z,102393.63
2019-02-25T21:57:55.432Z,102391.41
2019-02-25T22:00:27.146Z,102384.58
2019-02-25T22:02:56.194Z,102390.53
2019-02-25T22:05:24.682Z,102388.16
2019-02-25T22:07:56.665Z,102390.89
2019-02-25T22:10:23.328Z,102391.41
2019-02-25T22:12:51.722Z,102389.17
2019-02-25T22:15:22.445Z,102384.06
2019-02-25T22:17:53.148Z,102388.68
2019-02-25T22:20:22.515Z,102385.43
2019-02-25T22:22:54.500Z,102389.05
2019-02-25T22:25:22.261Z,102394.62
2019-02-25T22:27:50.659Z,102390.89
2019-02-25T22:30:19.541Z,102399.49
2019-02-25T22:32:48.010Z,102396.36
2019-02-25T22:35:16.435Z,102393.63
2019-02-25T22:37:49.220Z,102389.53
2019-02-25T22:40:17.182Z,102391.77
2019-02-25T22:42:47.921Z,102396.76
2019-02-25T22:45:18.980Z,102390.41
2019-02-25T22:47:47.459Z,102387.19
2019-02-25T22:50:15.893Z,102382.33
2019-02-25T22:52:44.317Z,102379.48
2019-02-25T22:55:15.396Z,102380.36
2019-02-25T22:57:46.038Z,102377.75
2019-02-25T23:00:17.186Z,102387.31
2019-02-25T23:02:47.338Z,102390.05
2019-02-25T23:05:17.243Z,102394.14
2019-02-25T23:07:47.996Z,102396.00
2019-02-25T23:59:12.658Z,102401.10
